Current Conditions
Overcast
Conditions



Pressure
1011.92 (hPa) - 29.88 (inHG)
Visibility

10.0 (km) - 6.2 (miles)
   Temperature
11  °C
52°F
7  °C
Dewpoint
77  %
 Humidity
   Wind Speed
3  km/h
2  kts
2  mph
0.9  m/s
   Wind Direction
Calm
Due North
   Airport Data
LKLN
Location Plzen Line 36 km (22.37 mi)
Metar :LKLN 230000Z AUTO VRB02KT 9999 OVC140 11/07 Q1012
Mon 23rd September 02:00 am
   Raw Metar Info
Raw METAR is the most common format in the world for the transmission of observational weather data. It is highly standardized through the International Civil Aviation Organization (ICAO), which allows it to be understood throughout most of the world.
   API Info
Data Provided by
https://www.checkwx.com/weather/LKLN
   © Info
CSS/SVG/PHP scripts were developed by weather34.com for use in the weather34 template © 2015-2019

Guide Info provided by Metar-Wikipedia